Time;durP1;ratioP1;P1;durP2;ratioP2;P2;SDS_P1;SDS_P2;PMS_P1;PMS_P2;Temp;Humidity;BMP_temperature;BMP_pressure;BME280_temperature;BME280_humidity;BME280_pressure;Samples;Min_cycle;Max_cycle;Signal;HPM_P1;HPM_P2
2024/04/22 00:00:13;477183.00;1.59;822.55;32604.00;0.11;57.09;;;;;5.70;1.00;;;;;;1852206;62;3530;-85
2024/04/22 00:02:40;219486.00;0.73;379.46;0.00;0.00;0.62;;;;;5.70;1.00;;;;;;2169624;66;1313;-86
2024/04/22 00:05:12;123023.00;0.41;213.30;0.00;0.00;0.62;;;;;5.60;1.00;;;;;;2166827;62;3458;-86
2024/04/22 00:12:38;204928.00;0.68;354.41;0.00;0.00;0.62;;;;;5.40;1.00;;;;;;2169864;66;1372;-87
2024/04/22 00:15:06;70911.00;0.24;123.33;0.00;0.00;0.62;;;;;5.40;1.00;;;;;;2169851;66;938;-88
2024/04/22 00:17:36;83383.00;0.28;144.88;0.00;0.00;0.62;;;;;5.30;1.00;;;;;;2169508;66;1229;-87
2024/04/22 00:22:35;331942.00;1.11;572.82;88916.00;0.30;154.44;;;;;5.20;2.40;;;;;;2164086;66;1355;-85
2024/04/22 00:27:31;430870.00;1.44;742.88;102005.00;0.34;177.03;;;;;5.10;1.30;;;;;;2163400;66;1428;-87
2024/04/22 00:30:00;321453.00;1.07;554.80;91922.00;0.31;159.63;;;;;5.00;3.30;;;;;;2158659;66;1495;-86
2024/04/22 00:32:29;364399.00;1.21;628.61;97067.00;0.32;168.51;;;;;5.20;2.80;;;;;;2158499;66;1089;-86
2024/04/22 00:34:54;436425.00;1.45;752.43;95204.00;0.32;165.29;;;;;5.10;1.40;;;;;;2158384;66;2453;-87
2024/04/22 00:37:23;253584.00;0.85;438.11;94441.00;0.31;163.98;;;;;5.00;3.00;;;;;;2158492;66;959;-86
2024/04/22 00:39:49;76804.00;0.26;133.52;0.00;0.00;0.62;;;;;5.30;2.40;;;;;;2158531;66;978;-85
2024/04/22 00:42:17;114084.00;0.38;197.88;0.00;0.00;0.62;;;;;5.50;1.00;;;;;;2158562;66;1053;-86
2024/04/22 00:44:43;113759.00;0.38;197.32;0.00;0.00;0.62;;;;;5.80;1.00;;;;;;2158579;66;1905;-87
2024/04/22 01:15:28;1241674.00;4.14;2165.75;0.00;0.00;0.62;;;;;4.80;1.40;;;;;;2308402;60;3486;31
2024/04/22 01:20:24;163559.00;0.55;283.17;0.00;0.00;0.62;;;;;5.10;1.00;;;;;;2150898;61;3432;-84
2024/04/22 01:28:48;646375.00;2.15;1114.37;0.00;0.00;0.62;;;;;4.90;1.00;;;;;;2305361;61;3487;31
2024/04/22 01:34:02;616493.00;2.05;1062.71;0.00;0.00;0.62;;;;;5.30;1.00;;;;;;2166940;66;1858;-89
2024/04/22 02:12:33;348324.00;1.16;600.98;17215.00;0.06;30.45;;;;;5.50;1.00;;;;;;2006425;60;3421;-85
2024/04/22 02:17:33;205130.00;0.68;354.75;0.00;0.00;0.62;;;;;6.70;1.00;;;;;;2196479;61;3557;-87
2024/04/22 02:22:31;375269.00;1.25;647.29;0.00;0.00;0.62;;;;;5.30;1.00;;;;;;1547826;60;3505;-89
2024/04/22 02:24:57;113333.00;0.38;196.58;0.00;0.00;0.62;;;;;5.40;1.00;;;;;;2207593;60;3521;-86
2024/04/22 03:02:39;110001.00;0.37;190.83;0.00;0.00;0.62;;;;;5.50;1.00;;;;;;2167524;61;3573;-86
2024/04/22 03:05:05;46362.00;0.15;80.89;0.00;0.00;0.62;;;;;5.60;1.00;;;;;;2174799;61;3658;-87
2024/04/22 03:10:44;169553.00;0.57;293.50;0.00;0.00;0.62;;;;;5.30;1.00;;;;;;897101;62;3442;-87
2024/04/22 03:23:16;416294.00;1.39;717.82;0.00;0.00;0.62;;;;;4.80;1.00;;;;;;2164970;66;1368;-90
2024/04/22 03:25:42;328856.00;1.10;567.52;0.00;0.00;0.62;;;;;5.00;1.00;;;;;;2165186;66;420;-91
2024/04/22 03:28:11;559778.00;1.87;964.82;0.00;0.00;0.62;;;;;5.20;1.00;;;;;;2165133;66;1175;-89
2024/04/22 03:30:37;374481.00;1.25;645.94;0.00;0.00;0.62;;;;;5.10;1.00;;;;;;2165083;66;1462;-89
2024/04/22 03:40:40;338534.00;1.13;584.15;0.00;0.00;0.62;;;;;5.00;1.00;;;;;;2185976;61;3550;-88
2024/04/22 03:45:38;270975.00;0.90;468.02;0.00;0.00;0.62;;;;;4.90;1.00;;;;;;2165708;66;1249;-90
2024/04/22 04:00:43;489417.00;1.63;843.61;0.00;0.00;0.62;;;;;5.40;1.00;;;;;;2163830;66;1385;-87
2024/04/22 04:05:41;587516.00;1.96;1012.67;92309.00;0.31;160.29;;;;;4.90;1.00;;;;;;2171119;61;3589;-86
2024/04/22 04:11:27;226128.00;0.75;390.89;3522.00;0.01;6.72;;;;;4.80;1.00;;;;;;2194432;61;3556;-85
2024/04/22 04:14:00;130491.00;0.43;226.18;0.00;0.00;0.62;;;;;5.10;1.00;;;;;;2177159;61;3493;-86
2024/04/22 04:16:31;226382.00;0.75;391.32;0.00;0.00;0.62;;;;;5.10;1.00;;;;;;2163933;66;1490;-88
2024/04/22 04:18:57;102417.00;0.34;177.74;34352.00;0.11;60.12;;;;;5.40;1.00;;;;;;2164645;66;1238;-88
2024/04/22 04:23:55;223655.00;0.75;386.63;0.00;0.00;0.62;;;;;5.30;1.00;;;;;;2169649;66;1373;-86
2024/04/22 04:26:21;118996.00;0.40;206.35;0.00;0.00;0.62;;;;;5.30;1.00;;;;;;2174144;61;3529;-85
2024/04/22 04:28:50;188138.00;0.63;325.50;0.00;0.00;0.62;;;;;5.20;1.00;;;;;;2174186;61;3610;-86
2024/04/22 04:33:51;281997.00;0.94;486.97;0.00;0.00;0.62;;;;;4.80;1.00;;;;;;2169586;66;1942;-88
2024/04/22 04:41:20;188586.00;0.63;326.27;0.00;0.00;0.62;;;;;5.20;1.00;;;;;;2163854;66;1371;-87
2024/04/22 04:43:46;86856.00;0.29;150.88;0.00;0.00;0.62;;;;;5.10;1.00;;;;;;2164385;66;1563;-86
2024/04/22 04:46:14;199338.00;0.66;344.78;0.00;0.00;0.62;;;;;4.80;1.00;;;;;;2164279;61;3610;-86
2024/04/22 04:58:47;135992.00;0.45;235.66;0.00;0.00;0.62;;;;;4.80;1.00;;;;;;2175834;61;3540;-86
2024/04/22 05:04:30;275088.00;0.92;475.09;39052.00;0.13;68.25;;;;;5.10;1.00;;;;;;2170237;61;3577;-86
2024/04/22 05:06:56;481172.00;1.60;829.41;0.00;0.00;0.62;;;;;5.00;1.00;;;;;;2152457;66;1447;-87
2024/04/22 05:09:24;884104.00;2.95;1528.22;95689.00;0.32;166.13;;;;;4.90;1.00;;;;;;2161574;61;3569;-88
2024/04/22 05:11:50;762676.00;2.54;1316.11;99865.00;0.33;173.34;;;;;5.20;1.00;;;;;;2160137;61;3536;-88
2024/04/22 05:14:22;729965.00;2.43;1259.24;138733.00;0.46;240.39;;;;;5.10;1.00;;;;;;2158780;66;1908;-87
2024/04/22 05:29:23;432627.00;1.44;745.90;0.00;0.00;0.62;;;;;5.30;1.00;;;;;;2173529;61;3579;-87
2024/04/22 05:37:06;134972.00;0.45;233.90;0.00;0.00;0.62;;;;;4.60;1.00;;;;;;2378632;58;690;-88
2024/04/22 05:45:05;115633.00;0.39;200.55;0.00;0.00;0.62;;;;;4.70;1.00;;;;;;926999;61;3396;-83
2024/04/22 05:47:33;161655.00;0.54;279.89;0.00;0.00;0.62;;;;;4.80;1.00;;;;;;2186591;61;3607;-87
2024/04/22 05:55:05;324664.00;1.08;560.31;0.00;0.00;0.62;;;;;4.80;1.00;;;;;;1852420;61;3496;-89
2024/04/22 06:00:06;169628.00;0.57;293.63;0.00;0.00;0.62;;;;;5.30;1.00;;;;;;2211907;61;3557;-85
2024/04/22 06:02:32;114781.00;0.38;199.08;28517.00;0.10;50.02;;;;;4.90;1.00;;;;;;2192368;61;3503;-88
2024/04/22 06:05:00;342725.00;1.14;591.36;0.00;0.00;0.62;;;;;4.50;1.00;;;;;;1781170;62;3553;-88
2024/04/22 06:19:58;198662.00;0.66;343.62;0.00;0.00;0.62;;;;;5.00;1.00;;;;;;2169786;66;1464;-86
2024/04/22 06:27:29;178559.00;0.60;309.01;0.00;0.00;0.62;;;;;4.40;1.00;;;;;;2165185;66;1390;-84
2024/04/22 06:32:27;266338.00;0.89;460.05;0.00;0.00;0.62;;;;;4.30;1.00;;;;;;2169999;60;3561;-86
2024/04/22 06:34:56;40104.00;0.13;70.07;0.00;0.00;0.62;;;;;4.50;1.00;;;;;;2170481;62;3637;-87
2024/04/22 06:37:24;20120.00;0.07;35.48;0.00;0.00;0.62;;;;;4.70;1.00;;;;;;2170842;66;1637;-87
2024/04/22 06:39:50;27612.00;0.09;48.45;0.00;0.00;0.62;;;;;4.50;1.00;;;;;;2165246;66;1498;-86
2024/04/22 06:47:20;237886.00;0.79;411.11;37515.00;0.13;65.59;;;;;4.60;1.00;;;;;;2195141;61;3561;-86
2024/04/22 07:00:05;152294.00;0.51;263.76;0.00;0.00;0.62;;;;;5.10;1.00;;;;;;2198143;61;3644;-86
2024/04/22 07:15:08;278335.00;0.93;480.67;101717.00;0.34;176.54;;;;;4.90;1.00;;;;;;2165658;66;1879;-89
2024/04/22 07:28:40;153649.00;0.51;266.10;0.00;0.00;0.62;;;;;5.40;1.00;;;;;;922630;61;4028;-87
2024/04/22 07:31:09;171651.00;0.57;297.11;0.00;0.00;0.62;;;;;5.70;1.00;;;;;;2177072;62;3707;-86
2024/04/22 07:33:38;99975.00;0.33;173.53;10385.00;0.03;18.62;;;;;5.40;1.00;;;;;;2170861;66;1913;-86
2024/04/22 07:36:16;108887.00;0.36;188.91;0.00;0.00;0.62;;;;;5.10;1.00;;;;;;2170885;66;960;-88
2024/04/22 07:38:49;67614.00;0.23;117.64;0.00;0.00;0.62;;;;;5.10;1.00;;;;;;2167321;62;3584;-87
2024/04/22 07:46:21;262798.00;0.88;453.96;0.00;0.00;0.62;;;;;5.20;1.00;;;;;;2158513;66;1368;-89
2024/04/22 07:48:47;99372.00;0.33;172.49;0.00;0.00;0.62;;;;;4.90;1.00;;;;;;2159224;66;1711;-87
2024/04/22 07:51:16;270184.00;0.90;466.66;0.00;0.00;0.62;;;;;5.20;1.00;;;;;;2159137;66;1645;-88
2024/04/22 07:58:44;238317.00;0.79;411.86;0.00;0.00;0.62;;;;;5.40;1.00;;;;;;2164912;66;1388;-86
2024/04/22 08:03:45;480343.00;1.60;827.99;13124.00;0.04;23.36;;;;;5.70;1.00;;;;;;2181963;61;3446;-87
2024/04/22 08:11:36;362843.00;1.21;625.94;26062.00;0.09;45.77;;;;;5.60;1.00;;;;;;2177219;61;3526;-86
2024/04/22 08:24:14;555918.00;1.85;958.16;94105.00;0.31;163.40;;;;;5.60;1.00;;;;;;852218;62;3546;-85
2024/04/22 08:36:45;702401.00;2.34;1211.40;92435.00;0.31;160.51;;;;;6.00;1.00;;;;;;2191804;61;3465;-88
2024/04/22 08:41:50;786395.00;2.62;1357.41;108821.00;0.36;188.80;;;;;5.80;1.00;;;;;;2164893;66;1399;-88
2024/04/22 08:44:16;817166.00;2.72;1411.08;103361.00;0.34;179.37;;;;;5.70;1.00;;;;;;2165024;66;1596;-88
2024/04/22 08:46:45;686435.00;2.29;1183.72;116649.00;0.39;202.30;;;;;5.60;1.00;;;;;;2165049;66;1042;-88
2024/04/22 08:49:11;588816.00;1.96;1014.91;93409.00;0.31;162.19;;;;;5.70;1.00;;;;;;2164946;66;1567;-90
2024/04/22 08:51:40;554623.00;1.85;955.93;90597.00;0.30;157.34;;;;;5.60;1.00;;;;;;2165009;66;991;-86
2024/04/22 08:54:06;804052.00;2.68;1388.19;104240.00;0.35;180.89;;;;;6.00;1.00;;;;;;2169831;61;3663;-86
2024/04/22 08:59:10;786627.00;2.62;1357.81;106830.00;0.36;185.36;;;;;5.90;1.00;;;;;;2182507;61;3521;-87
2024/04/22 09:04:10;866401.00;2.89;1497.18;0.00;0.00;0.62;;;;;5.50;1.00;;;;;;2164368;66;1374;-89
2024/04/22 09:06:36;632825.00;2.11;1090.93;0.00;0.00;0.62;;;;;5.70;1.00;;;;;;2181594;61;3554;-85
2024/04/22 09:16:41;821051.00;2.74;1417.86;0.00;0.00;0.62;;;;;5.80;1.00;;;;;;1848751;61;3548;-85
2024/04/22 09:24:11;453174.00;1.51;781.24;0.00;0.00;0.62;;;;;6.00;1.00;;;;;;2166577;61;3415;-86
2024/04/22 09:29:10;302129.00;1.01;521.58;0.00;0.00;0.62;;;;;6.40;1.00;;;;;;2170362;66;1216;-89
2024/04/22 09:34:16;148433.00;0.49;257.11;0.00;0.00;0.62;;;;;5.80;1.00;;;;;;2170793;61;3437;-86
2024/04/22 09:41:48;556729.00;1.86;959.56;34820.00;0.12;60.93;;;;;6.40;1.00;;;;;;2164103;66;1087;-88
2024/04/22 09:47:01;266090.00;0.89;459.62;33288.00;0.11;58.27;;;;;6.30;1.00;;;;;;2164780;66;1354;-89
2024/04/22 09:49:31;53067.00;0.18;92.49;0.00;0.00;0.62;;;;;6.60;1.00;;;;;;2165408;66;1286;-90
2024/04/22 09:59:30;128179.00;0.43;222.19;0.00;0.00;0.62;;;;;7.70;1.00;;;;;;2183783;61;3580;-88
2024/04/22 10:01:57;59049.00;0.20;102.83;0.00;0.00;0.62;;;;;7.70;1.00;;;;;;2172344;61;3708;-87
2024/04/22 10:04:25;36972.00;0.12;64.65;0.00;0.00;0.62;;;;;8.20;1.00;;;;;;2164779;66;2343;-87
2024/04/22 10:12:07;699142.00;2.33;1205.75;119002.00;0.40;206.36;;;;;7.90;1.00;;;;;;2164234;66;1721;-88
2024/04/22 10:14:33;92299.00;0.31;160.28;0.00;0.00;0.62;;;;;8.20;1.00;;;;;;2171404;61;3644;-87
2024/04/22 10:17:03;96901.00;0.32;168.22;0.00;0.00;0.62;;;;;8.40;1.00;;;;;;2166453;61;3555;-85
2024/04/22 10:19:31;262997.00;0.88;454.30;9313.00;0.03;16.76;;;;;8.20;1.00;;;;;;2164065;66;1459;-86
2024/04/22 10:22:04;174392.00;0.58;301.83;34984.00;0.12;61.21;;;;;7.70;1.00;;;;;;2170248;61;3626;-87
2024/04/22 10:24:34;27390.00;0.09;48.07;0.00;0.00;0.62;;;;;8.00;1.00;;;;;;2178616;61;3512;-86
2024/04/22 10:32:05;242125.00;0.81;418.41;0.00;0.00;0.62;;;;;8.60;1.00;;;;;;2159884;66;1386;-87
2024/04/22 10:37:09;77855.00;0.26;135.33;0.00;0.00;0.62;;;;;8.40;1.00;;;;;;773084;65;1962;-89
2024/04/22 10:39:35;48623.00;0.16;84.80;0.00;0.00;0.62;;;;;8.80;1.00;;;;;;2164594;66;1508;-88
2024/04/22 10:47:09;68288.00;0.23;118.80;0.00;0.00;0.62;;;;;10.00;1.00;;;;;;2170225;66;1800;-87
2024/04/22 10:49:35;107948.00;0.36;187.29;0.00;0.00;0.62;;;;;9.90;1.00;;;;;;2170469;66;1320;-88
2024/04/22 10:54:32;106293.00;0.35;184.43;0.00;0.00;0.62;;;;;9.10;1.00;;;;;;2169342;66;1885;-87
2024/04/22 10:56:59;34223.00;0.11;59.89;0.00;0.00;0.62;;;;;9.20;1.00;;;;;;2173900;61;3617;-86
2024/04/22 10:59:28;208261.00;0.69;360.14;0.00;0.00;0.62;;;;;9.70;1.00;;;;;;2172934;60;3660;-86
2024/04/22 11:01:54;119950.00;0.40;208.00;0.00;0.00;0.62;;;;;9.70;1.00;;;;;;2164853;61;3655;-88
2024/04/22 11:04:26;51575.00;0.17;89.91;0.00;0.00;0.62;;;;;9.70;1.00;;;;;;2202850;61;3623;-88
2024/04/22 11:09:26;230082.00;0.77;397.69;0.00;0.00;0.62;;;;;10.00;1.00;;;;;;2171523;61;3517;-87
2024/04/22 11:11:52;52977.00;0.18;92.33;0.00;0.00;0.62;;;;;10.40;1.00;;;;;;2174664;61;3454;-85
2024/04/22 11:19:33;101015.00;0.34;175.32;0.00;0.00;0.62;;;;;10.20;1.00;;;;;;2180325;61;3441;-86
2024/04/22 11:22:00;47221.00;0.16;82.38;0.00;0.00;0.62;;;;;10.50;1.00;;;;;;2176060;66;1068;-87
2024/04/22 11:24:29;20897.00;0.07;36.82;0.00;0.00;0.62;;;;;10.80;1.00;;;;;;2176020;66;1978;-86
2024/04/22 11:26:54;19803.00;0.07;34.93;0.00;0.00;0.62;;;;;10.40;1.00;;;;;;2176030;66;981;-87
2024/04/22 11:31:55;91075.00;0.30;158.16;0.00;0.00;0.62;;;;;9.70;1.00;;;;;;2164603;66;1412;-88
2024/04/22 11:34:21;0.00;0.00;0.62;0.00;0.00;0.62;;;;;10.10;1.00;;;;;;2164738;66;1909;-87
2024/04/22 11:36:59;0.00;0.00;0.62;0.00;0.00;0.62;;;;;10.60;1.00;;;;;;2164651;66;1709;-87
2024/04/22 11:45:01;465808.00;1.55;802.98;101692.00;0.34;176.49;;;;;10.10;1.00;;;;;;2165075;66;1367;-86
2024/04/22 11:47:27;194982.00;0.65;337.29;93296.00;0.31;162.00;;;;;10.40;1.00;;;;;;2164553;66;1585;-87
2024/04/22 11:49:56;292320.00;0.97;504.72;132778.00;0.44;230.12;;;;;10.70;1.00;;;;;;2164581;66;1649;-87
2024/04/22 11:55:01;380931.00;1.27;657.03;93391.00;0.31;162.16;;;;;10.20;1.00;;;;;;2169709;66;1877;-88
2024/04/22 11:57:26;447603.00;1.49;771.66;120402.00;0.40;208.78;;;;;10.40;1.00;;;;;;2170086;66;1642;-87
2024/04/22 11:59:55;362972.00;1.21;626.16;98889.00;0.33;171.65;;;;;10.20;1.00;;;;;;2170373;66;1038;-88
2024/04/22 12:02:21;416682.00;1.39;718.49;98036.00;0.33;170.18;;;;;10.00;1.00;;;;;;2170374;66;911;-87
2024/04/22 12:07:23;546397.00;1.82;941.75;92855.00;0.31;161.24;;;;;10.20;1.00;;;;;;2169558;66;1427;-86
2024/04/22 12:09:49;400999.00;1.34;691.52;97942.00;0.33;170.02;;;;;10.10;1.00;;;;;;2170097;65;2417;-86
2024/04/22 12:14:51;492309.00;1.64;848.58;97776.00;0.33;169.73;;;;;10.60;1.00;;;;;;2177458;60;3452;-88
2024/04/22 12:17:17;777458.00;2.59;1341.84;46533.00;0.16;81.19;;;;;10.60;1.00;;;;;;2176009;66;937;-87
2024/04/22 12:19:46;724702.00;2.42;1250.10;89611.00;0.30;155.64;;;;;11.00;1.00;;;;;;2175987;66;1156;-86
2024/04/22 12:22:12;591725.00;1.97;1019.93;89570.00;0.30;155.57;;;;;11.00;1.00;;;;;;2176036;66;953;-87
2024/04/22 12:24:41;615500.00;2.05;1060.99;93965.00;0.31;163.15;;;;;11.00;1.00;;;;;;2175911;66;1201;-88
2024/04/22 12:27:07;706344.00;2.35;1218.24;101406.00;0.34;176.00;;;;;11.30;1.00;;;;;;2175946;66;955;-87
2024/04/22 12:29:35;436000.00;1.45;751.70;90253.00;0.30;156.74;;;;;11.60;1.00;;;;;;2176395;66;1185;-86
2024/04/22 12:32:05;573565.00;1.91;988.60;102861.00;0.34;178.51;;;;;11.80;1.00;;;;;;2175862;66;1567;-86
2024/04/22 12:34:34;703880.00;2.35;1213.97;77815.00;0.26;135.26;;;;;11.70;1.00;;;;;;2175921;66;1865;-87
2024/04/22 12:37:00;729372.00;2.43;1258.21;102994.00;0.34;178.74;;;;;11.50;1.00;;;;;;2173078;61;3634;-87
2024/04/22 12:39:29;682616.00;2.28;1177.11;88153.00;0.29;153.12;;;;;11.00;1.00;;;;;;2164478;66;2417;-89
2024/04/22 12:41:55;477787.00;1.59;823.59;72675.00;0.24;126.38;;;;;10.60;1.00;;;;;;2164334;66;1089;-88
2024/04/22 12:44:23;640645.00;2.14;1104.45;98665.00;0.33;171.27;;;;;10.60;1.00;;;;;;2164492;66;1067;-89
2024/04/22 12:52:24;444016.00;1.48;765.49;13764.00;0.05;24.47;;;;;11.10;1.00;;;;;;2378925;58;706;-88
2024/04/22 12:54:52;579827.00;1.93;999.40;87787.00;0.29;152.49;;;;;11.30;1.00;;;;;;2164554;66;1909;-86
2024/04/22 12:57:21;799505.00;2.67;1380.26;99527.00;0.33;172.76;;;;;11.10;1.00;;;;;;2165828;61;3511;-88
2024/04/22 12:59:49;654642.00;2.18;1128.67;96529.00;0.32;167.58;;;;;10.60;1.00;;;;;;2164896;66;1336;-89
2024/04/22 13:02:18;463151.00;1.54;798.41;92545.00;0.31;160.70;;;;;10.30;1.00;;;;;;2164433;66;1591;-88
2024/04/22 13:04:49;528592.00;1.76;911.07;85364.00;0.28;148.30;;;;;10.10;1.00;;;;;;2164452;66;915;-87
2024/04/22 13:09:47;811554.00;2.71;1401.28;97899.00;0.33;169.95;;;;;10.10;1.00;;;;;;2169417;66;1492;-86
2024/04/22 13:12:16;461948.00;1.54;796.34;87662.00;0.29;152.27;;;;;10.30;1.00;;;;;;2170012;66;1302;-87
2024/04/22 13:14:44;610577.00;2.04;1052.49;97078.00;0.32;168.53;;;;;10.50;1.00;;;;;;2170078;66;1903;-87
2024/04/22 13:17:10;591145.00;1.97;1018.93;116530.00;0.39;202.10;;;;;10.20;1.00;;;;;;2169912;66;1559;-87
2024/04/22 13:19:39;650202.00;2.17;1120.99;92690.00;0.31;160.95;;;;;9.90;1.00;;;;;;2169981;66;1254;-86
2024/04/22 13:22:07;413307.00;1.38;712.68;101339.00;0.34;175.88;;;;;9.60;1.00;;;;;;2170011;66;1657;-88
2024/04/22 13:24:36;523472.00;1.74;902.25;89958.00;0.30;156.24;;;;;9.50;1.00;;;;;;2169919;66;1557;-88
2024/04/22 13:27:02;517860.00;1.73;892.58;91978.00;0.31;159.72;;;;;9.70;1.00;;;;;;2170022;66;1558;-86
2024/04/22 13:29:31;559397.00;1.86;964.16;100601.00;0.34;174.61;;;;;9.70;1.00;;;;;;2170080;66;1250;-88
2024/04/22 13:31:57;442788.00;1.48;763.38;100550.00;0.34;174.52;;;;;9.60;1.00;;;;;;2170040;66;1459;-85
2024/04/22 13:34:25;405768.00;1.35;699.72;92376.00;0.31;160.41;;;;;10.00;1.00;;;;;;2170025;66;1858;-87
2024/04/22 13:36:55;303731.00;1.01;524.33;91855.00;0.31;159.51;;;;;10.00;1.00;;;;;;2170063;66;2301;-87
2024/04/22 13:39:24;312460.00;1.04;539.34;91988.00;0.31;159.74;;;;;10.00;1.00;;;;;;2169895;66;1209;-86
2024/04/22 13:41:54;449935.00;1.50;775.67;104108.00;0.35;180.66;;;;;9.60;1.00;;;;;;2170049;66;1610;-87
2024/04/22 13:44:20;398224.00;1.33;686.75;74727.00;0.25;129.93;;;;;9.50;1.00;;;;;;2169941;66;1412;-87
2024/04/22 13:46:48;322248.00;1.07;556.16;82844.00;0.28;143.95;;;;;9.50;1.00;;;;;;2169992;66;1064;-85
2024/04/22 13:49:14;395846.00;1.32;682.66;95508.00;0.32;165.82;;;;;9.30;1.00;;;;;;2169792;66;1604;-89
2024/04/22 13:51:43;374412.00;1.25;645.82;97651.00;0.33;169.52;;;;;9.60;1.00;;;;;;2169998;66;1001;-87
2024/04/22 13:54:09;443776.00;1.48;765.08;93256.00;0.31;161.93;;;;;9.70;1.00;;;;;;2170514;66;1340;-87
2024/04/22 13:56:40;307193.00;1.02;530.28;92530.00;0.31;160.68;;;;;9.60;1.00;;;;;;2169799;66;1857;-86
2024/04/22 13:59:06;347745.00;1.16;599.99;96229.00;0.32;167.06;;;;;9.20;1.00;;;;;;2169928;66;1390;-87
2024/04/22 14:01:35;544037.00;1.81;937.68;90425.00;0.30;157.04;;;;;9.30;1.00;;;;;;2169973;66;1089;-87
2024/04/22 14:04:01;378952.00;1.26;653.62;104149.00;0.35;180.73;;;;;9.50;1.00;;;;;;2169924;66;1555;-87
2024/04/22 14:06:29;389408.00;1.30;671.60;97516.00;0.33;169.28;;;;;9.60;1.00;;;;;;2169815;66;1495;-89
2024/04/22 14:08:55;344438.00;1.15;594.30;85718.00;0.29;148.91;;;;;9.80;1.00;;;;;;2169717;66;1671;-87
2024/04/22 14:11:24;423928.00;1.41;730.94;94826.00;0.32;164.64;;;;;9.80;1.00;;;;;;2169934;66;1078;-87
2024/04/22 14:13:53;287696.00;0.96;496.77;93474.00;0.31;162.31;;;;;9.80;1.00;;;;;;2169866;66;939;-87
2024/04/22 14:16:21;490258.00;1.63;845.05;67219.00;0.22;116.95;;;;;9.90;1.00;;;;;;2169806;66;2267;-87
2024/04/22 14:18:47;401469.00;1.34;692.33;87045.00;0.29;151.20;;;;;10.10;1.00;;;;;;2170156;66;1241;-89
2024/04/22 14:21:16;555786.00;1.85;957.93;140506.00;0.47;243.44;;;;;10.40;1.00;;;;;;2169884;66;1612;-86
2024/04/22 14:23:41;456432.00;1.52;786.85;98236.00;0.33;170.53;;;;;10.60;1.00;;;;;;2170308;66;1702;-87
2024/04/22 14:26:10;331664.00;1.11;572.35;92333.00;0.31;160.34;;;;;10.80;1.00;;;;;;2170464;66;940;-86
2024/04/22 14:28:36;396545.00;1.32;683.87;94157.00;0.31;163.49;;;;;10.60;1.00;;;;;;2170655;66;1232;-87
2024/04/22 14:31:07;401770.00;1.34;692.85;84441.00;0.28;146.71;;;;;10.20;1.00;;;;;;2170269;66;1685;-87
2024/04/22 14:33:33;444886.00;1.48;766.99;91507.00;0.31;158.91;;;;;10.20;1.00;;;;;;2170409;66;1654;-88
2024/04/22 14:36:01;411543.00;1.37;709.65;94413.00;0.31;163.93;;;;;10.20;1.00;;;;;;2170339;66;1866;-86
2024/04/22 14:38:27;343823.00;1.15;593.24;98446.00;0.33;170.89;;;;;10.00;1.00;;;;;;2170576;66;1570;-87
2024/04/22 14:40:56;367640.00;1.23;634.18;93457.00;0.31;162.28;;;;;10.10;1.00;;;;;;2170479;66;922;-86
2024/04/22 14:43:24;366619.00;1.22;632.43;93518.00;0.31;162.38;;;;;10.30;1.00;;;;;;2170458;66;968;-87
2024/04/22 14:45:50;428352.00;1.43;738.55;93791.00;0.31;162.85;;;;;10.40;1.00;;;;;;2170313;66;1648;-88
2024/04/22 14:48:22;517660.00;1.73;892.23;139954.00;0.47;242.49;;;;;10.20;1.00;;;;;;2170760;66;1250;-87
2024/04/22 14:50:51;382933.00;1.28;660.47;101506.00;0.34;176.17;;;;;10.20;1.00;;;;;;2170386;66;1637;-88
2024/04/22 14:53:19;525126.00;1.75;905.09;111262.00;0.37;193.01;;;;;10.30;1.00;;;;;;2170262;66;1709;-88
2024/04/22 14:55:45;574468.00;1.91;990.15;83178.00;0.28;144.53;;;;;10.90;1.00;;;;;;2170366;66;1901;-87
2024/04/22 14:58:13;448940.00;1.50;773.96;88442.00;0.29;153.62;;;;;10.60;1.00;;;;;;2170480;66;1191;-86
2024/04/22 15:00:39;118926992.00;396.42;68137312.00;89934.00;0.30;156.19;;;;;10.30;1.00;;;;;;2170374;66;1649;-86
2024/04/22 15:03:08;116363648.00;387.88;63821988.00;92292.00;0.31;160.27;;;;;10.30;1.00;;;;;;2170376;66;999;-89
2024/04/22 15:05:36;345663.00;1.15;596.41;89406.00;0.30;155.28;;;;;10.10;1.00;;;;;;2170300;66;1481;-87
2024/04/22 15:08:05;486601.00;1.62;838.76;88746.00;0.30;154.14;;;;;10.00;1.00;;;;;;2170211;66;1485;-87
2024/04/22 15:10:31;373190.00;1.24;643.72;94202.00;0.31;163.56;;;;;10.00;1.00;;;;;;2170373;66;1564;-88
2024/04/22 15:12:59;402310.00;1.34;693.78;89763.00;0.30;155.90;;;;;10.00;1.00;;;;;;2170478;66;945;-88
2024/04/22 15:15:25;417475.00;1.39;719.85;81313.00;0.27;141.31;;;;;10.30;1.00;;;;;;2170433;66;1895;-86
2024/04/22 15:17:53;383898.00;1.28;662.13;115474.00;0.38;200.27;;;;;10.50;1.00;;;;;;2170291;66;1670;-86
2024/04/22 15:20:19;407045.00;1.36;701.92;90296.00;0.30;156.82;;;;;10.10;1.00;;;;;;2170384;66;1054;-87
2024/04/22 15:22:50;432536.00;1.44;745.75;86460.00;0.29;150.19;;;;;10.00;1.00;;;;;;2170343;66;874;-87
2024/04/22 15:25:16;326874.00;1.09;564.11;92705.00;0.31;160.98;;;;;10.40;1.00;;;;;;2170341;66;1554;-87
2024/04/22 15:27:45;438346.00;1.46;755.74;89089.00;0.30;154.73;;;;;10.30;1.00;;;;;;2170327;66;1240;-88
2024/04/22 15:30:11;280624.00;0.94;484.61;91989.00;0.31;159.74;;;;;10.30;1.00;;;;;;2170389;66;1016;-87
2024/04/22 15:32:41;394889.00;1.32;681.02;90703.00;0.30;157.52;;;;;10.40;1.00;;;;;;2170342;66;1157;-87
2024/04/22 15:35:07;627579.00;2.09;1081.86;86793.00;0.29;150.77;;;;;10.30;1.00;;;;;;2170345;66;1900;-87
2024/04/22 15:37:35;417356.00;1.39;719.64;100525.00;0.34;174.48;;;;;10.50;1.00;;;;;;2170219;66;1575;-89
2024/04/22 15:40:05;270930.00;0.90;467.94;88420.00;0.29;153.58;;;;;10.20;1.00;;;;;;2170276;66;1267;-85
2024/04/22 15:42:33;633386.00;2.11;1091.90;103235.00;0.34;179.16;;;;;10.70;1.00;;;;;;2170305;66;1357;-89
2024/04/22 15:44:59;515358.00;1.72;888.27;87517.00;0.29;152.02;;;;;10.90;1.00;;;;;;2170202;66;1346;-87
2024/04/22 15:47:27;560600.00;1.87;966.24;94515.00;0.32;164.10;;;;;10.30;1.00;;;;;;2170247;66;1089;-87
2024/04/22 15:49:53;531869.00;1.77;916.71;96084.00;0.32;166.81;;;;;10.30;1.00;;;;;;2170359;66;1642;-88
2024/04/22 15:52:22;580898.00;1.94;1001.25;91159.00;0.30;158.31;;;;;10.30;1.00;;;;;;2170399;66;981;-87
2024/04/22 15:54:50;425869.00;1.42;734.28;100188.00;0.33;173.90;;;;;10.40;1.00;;;;;;2170177;66;1891;-88
2024/04/22 15:57:21;955405.00;3.18;1653.64;95410.00;0.32;165.65;;;;;10.60;1.00;;;;;;2170324;66;961;-87
2024/04/22 15:59:47;577081.00;1.92;994.66;89722.00;0.30;155.83;;;;;10.20;1.00;;;;;;2170777;66;1647;-86
2024/04/22 16:02:15;558399.00;1.86;962.44;112051.00;0.37;194.37;;;;;10.20;1.00;;;;;;2170272;66;1672;-88
2024/04/22 16:04:42;465184.00;1.55;801.90;98309.00;0.33;170.65;;;;;10.00;1.00;;;;;;2170242;66;1667;-86
2024/04/22 16:07:10;557500.00;1.86;960.89;111711.00;0.37;193.78;;;;;9.80;1.00;;;;;;2172168;61;3482;-87
2024/04/22 16:09:36;615764.00;2.05;1061.45;88194.00;0.29;153.19;;;;;10.30;1.00;;;;;;2165376;66;1230;-90
2024/04/22 16:12:05;408361.00;1.36;704.18;91267.00;0.30;158.50;;;;;10.80;1.00;;;;;;2164517;66;1700;-86
2024/04/22 16:14:33;532470.00;1.77;917.75;89296.00;0.30;155.09;;;;;10.70;1.00;;;;;;2164606;66;981;-86
2024/04/22 16:17:02;476028.00;1.59;820.56;107495.00;0.36;186.51;;;;;10.60;1.00;;;;;;2180152;61;3389;-86
2024/04/22 16:19:28;653370.00;2.18;1126.47;135572.00;0.45;234.94;;;;;10.20;1.00;;;;;;2153185;66;1346;-87
2024/04/22 16:21:56;678881.00;2.26;1170.63;138900.00;0.46;240.67;;;;;10.60;1.00;;;;;;2153293;66;1058;-86
2024/04/22 16:24:22;524875.00;1.75;904.66;93326.00;0.31;162.05;;;;;10.50;1.00;;;;;;2153100;66;1598;-87
2024/04/22 16:26:52;637153.00;2.12;1098.42;88359.00;0.29;153.47;;;;;10.50;1.00;;;;;;2153725;66;936;-87
2024/04/22 16:29:20;598449.00;1.99;1031.54;93399.00;0.31;162.18;;;;;10.30;1.00;;;;;;2164995;61;3651;-87
2024/04/22 16:31:52;395135.00;1.32;681.44;77884.00;0.26;135.38;;;;;10.30;1.00;;;;;;2164554;66;1070;-87
2024/04/22 16:34:18;552604.00;1.84;952.45;110222.00;0.37;191.21;;;;;10.50;1.00;;;;;;2164509;66;1504;-88